sensor_id;sensor_type;location;lat;lon;timestamp;P1;durP1;ratioP1;P2;durP2;ratioP2
22150;SDS011;11241;47.078;15.462;2022-08-19T00:01:17;6.13;;;2.85;;
22150;SDS011;11241;47.078;15.462;2022-08-19T00:03:46;13.02;;;3.25;;
22150;SDS011;11241;47.078;15.462;2022-08-19T00:06:04;12.73;;;3.30;;
22150;SDS011;11241;47.078;15.462;2022-08-19T00:08:22;12.27;;;3.25;;
22150;SDS011;11241;47.078;15.462;2022-08-19T00:10:41;9.48;;;3.17;;
22150;SDS011;11241;47.078;15.462;2022-08-19T00:12:59;11.88;;;3.30;;
22150;SDS011;11241;47.078;15.462;2022-08-19T00:15:18;8.35;;;3.50;;
22150;SDS011;11241;47.078;15.462;2022-08-19T00:17:37;10.60;;;3.45;;
22150;SDS011;11241;47.078;15.462;2022-08-19T00:19:58;14.68;;;3.67;;
22150;SDS011;11241;47.078;15.462;2022-08-19T00:22:17;9.10;;;3.33;;
22150;SDS011;11241;47.078;15.462;2022-08-19T00:24:35;14.68;;;3.88;;
22150;SDS011;11241;47.078;15.462;2022-08-19T00:26:55;10.85;;;3.30;;
22150;SDS011;11241;47.078;15.462;2022-08-19T00:29:33;9.27;;;3.30;;
22150;SDS011;11241;47.078;15.462;2022-08-19T00:31:53;10.98;;;3.83;;
22150;SDS011;11241;47.078;15.462;2022-08-19T00:34:14;12.37;;;3.90;;
22150;SDS011;11241;47.078;15.462;2022-08-19T00:36:32;11.32;;;2.97;;
22150;SDS011;11241;47.078;15.462;2022-08-19T00:38:50;11.00;;;3.35;;
22150;SDS011;11241;47.078;15.462;2022-08-19T00:41:10;12.57;;;3.88;;
22150;SDS011;11241;47.078;15.462;2022-08-19T00:43:30;12.10;;;3.90;;
22150;SDS011;11241;47.078;15.462;2022-08-19T00:45:48;16.33;;;4.22;;
22150;SDS011;11241;47.078;15.462;2022-08-19T00:48:10;17.92;;;3.97;;
22150;SDS011;11241;47.078;15.462;2022-08-19T00:50:31;9.50;;;3.72;;
22150;SDS011;11241;47.078;15.462;2022-08-19T00:52:50;12.90;;;4.65;;
22150;SDS011;11241;47.078;15.462;2022-08-19T00:55:08;13.50;;;4.22;;
22150;SDS011;11241;47.078;15.462;2022-08-19T00:57:34;10.23;;;3.80;;
22150;SDS011;11241;47.078;15.462;2022-08-19T00:59:54;15.50;;;4.20;;
22150;SDS011;11241;47.078;15.462;2022-08-19T01:02:18;18.08;;;4.60;;
22150;SDS011;11241;47.078;15.462;2022-08-19T01:04:36;14.65;;;4.22;;
22150;SDS011;11241;47.078;15.462;2022-08-19T01:06:55;9.35;;;4.40;;
22150;SDS011;11241;47.078;15.462;2022-08-19T01:09:13;13.98;;;4.55;;
22150;SDS011;11241;47.078;15.462;2022-08-19T01:11:33;14.23;;;4.47;;
22150;SDS011;11241;47.078;15.462;2022-08-19T01:13:52;12.23;;;4.68;;
22150;SDS011;11241;47.078;15.462;2022-08-19T01:16:12;14.35;;;5.07;;
22150;SDS011;11241;47.078;15.462;2022-08-19T01:18:31;12.38;;;5.22;;
22150;SDS011;11241;47.078;15.462;2022-08-19T01:20:50;18.08;;;5.57;;
22150;SDS011;11241;47.078;15.462;2022-08-19T01:23:10;15.70;;;5.65;;
22150;SDS011;11241;47.078;15.462;2022-08-19T01:25:31;15.25;;;5.35;;
22150;SDS011;11241;47.078;15.462;2022-08-19T01:27:50;13.30;;;5.00;;
22150;SDS011;11241;47.078;15.462;2022-08-19T01:30:10;15.68;;;5.32;;
22150;SDS011;11241;47.078;15.462;2022-08-19T01:32:30;13.52;;;5.28;;
22150;SDS011;11241;47.078;15.462;2022-08-19T01:34:50;12.80;;;5.25;;
22150;SDS011;11241;47.078;15.462;2022-08-19T01:37:11;13.02;;;5.32;;
22150;SDS011;11241;47.078;15.462;2022-08-19T01:39:41;16.25;;;5.55;;
22150;SDS011;11241;47.078;15.462;2022-08-19T01:41:59;16.70;;;5.82;;
22150;SDS011;11241;47.078;15.462;2022-08-19T01:44:20;20.45;;;5.97;;
22150;SDS011;11241;47.078;15.462;2022-08-19T01:46:41;13.18;;;5.22;;
22150;SDS011;11241;47.078;15.462;2022-08-19T01:48:59;17.30;;;5.95;;
22150;SDS011;11241;47.078;15.462;2022-08-19T01:51:17;16.05;;;5.88;;
22150;SDS011;11241;47.078;15.462;2022-08-19T01:53:36;12.70;;;5.13;;
22150;SDS011;11241;47.078;15.462;2022-08-19T01:55:54;13.25;;;5.20;;
22150;SDS011;11241;47.078;15.462;2022-08-19T01:58:14;13.85;;;5.43;;
22150;SDS011;11241;47.078;15.462;2022-08-19T02:00:34;14.32;;;4.40;;
22150;SDS011;11241;47.078;15.462;2022-08-19T02:02:52;11.30;;;3.80;;
22150;SDS011;11241;47.078;15.462;2022-08-19T02:05:10;13.38;;;4.35;;
22150;SDS011;11241;47.078;15.462;2022-08-19T02:07:28;11.52;;;4.28;;
22150;SDS011;11241;47.078;15.462;2022-08-19T02:09:47;13.32;;;4.22;;
22150;SDS011;11241;47.078;15.462;2022-08-19T02:12:06;11.52;;;3.80;;
22150;SDS011;11241;47.078;15.462;2022-08-19T02:14:25;12.85;;;4.35;;
22150;SDS011;11241;47.078;15.462;2022-08-19T02:16:43;9.88;;;5.03;;
22150;SDS011;11241;47.078;15.462;2022-08-19T02:19:02;11.48;;;5.00;;
22150;SDS011;11241;47.078;15.462;2022-08-19T02:21:21;9.90;;;4.60;;
22150;SDS011;11241;47.078;15.462;2022-08-19T02:23:39;13.45;;;4.57;;
22150;SDS011;11241;47.078;15.462;2022-08-19T02:25:57;12.95;;;4.68;;
22150;SDS011;11241;47.078;15.462;2022-08-19T02:28:15;14.48;;;4.47;;
22150;SDS011;11241;47.078;15.462;2022-08-19T02:30:34;11.73;;;4.07;;
22150;SDS011;11241;47.078;15.462;2022-08-19T02:32:53;15.73;;;4.25;;
22150;SDS011;11241;47.078;15.462;2022-08-19T02:35:12;13.93;;;3.60;;
22150;SDS011;11241;47.078;15.462;2022-08-19T02:37:30;11.80;;;3.50;;
22150;SDS011;11241;47.078;15.462;2022-08-19T02:40:07;14.15;;;3.72;;
22150;SDS011;11241;47.078;15.462;2022-08-19T02:42:28;7.97;;;3.28;;
22150;SDS011;11241;47.078;15.462;2022-08-19T02:44:48;8.73;;;3.17;;
22150;SDS011;11241;47.078;15.462;2022-08-19T02:47:06;16.13;;;3.75;;
22150;SDS011;11241;47.078;15.462;2022-08-19T02:49:25;9.18;;;3.63;;
22150;SDS011;11241;47.078;15.462;2022-08-19T02:51:43;15.70;;;3.97;;
22150;SDS011;11241;47.078;15.462;2022-08-19T02:54:02;10.43;;;3.38;;
22150;SDS011;11241;47.078;15.462;2022-08-19T02:56:21;14.98;;;3.88;;
22150;SDS011;11241;47.078;15.462;2022-08-19T02:58:40;11.05;;;4.00;;
22150;SDS011;11241;47.078;15.462;2022-08-19T03:00:59;10.20;;;3.95;;
22150;SDS011;11241;47.078;15.462;2022-08-19T03:03:18;13.88;;;4.25;;
22150;SDS011;11241;47.078;15.462;2022-08-19T03:05:36;10.45;;;3.13;;
22150;SDS011;11241;47.078;15.462;2022-08-19T03:08:12;11.95;;;3.60;;
22150;SDS011;11241;47.078;15.462;2022-08-19T03:10:31;10.25;;;3.15;;
22150;SDS011;11241;47.078;15.462;2022-08-19T03:12:49;13.70;;;3.40;;
22150;SDS011;11241;47.078;15.462;2022-08-19T03:15:08;17.25;;;3.47;;
22150;SDS011;11241;47.078;15.462;2022-08-19T03:17:26;14.57;;;3.60;;
22150;SDS011;11241;47.078;15.462;2022-08-19T03:19:45;9.68;;;3.40;;
22150;SDS011;11241;47.078;15.462;2022-08-19T03:22:03;10.63;;;3.00;;
22150;SDS011;11241;47.078;15.462;2022-08-19T03:24:21;13.15;;;3.80;;
22150;SDS011;11241;47.078;15.462;2022-08-19T03:26:41;14.70;;;4.07;;
22150;SDS011;11241;47.078;15.462;2022-08-19T03:29:04;9.50;;;3.47;;
22150;SDS011;11241;47.078;15.462;2022-08-19T03:31:25;12.32;;;3.60;;
22150;SDS011;11241;47.078;15.462;2022-08-19T03:34:03;10.85;;;3.95;;
22150;SDS011;11241;47.078;15.462;2022-08-19T03:36:24;14.55;;;3.97;;
22150;SDS011;11241;47.078;15.462;2022-08-19T03:38:46;12.27;;;3.80;;
22150;SDS011;11241;47.078;15.462;2022-08-19T03:41:13;11.05;;;3.45;;
22150;SDS011;11241;47.078;15.462;2022-08-19T03:43:33;13.18;;;3.40;;
22150;SDS011;11241;47.078;15.462;2022-08-19T03:45:59;11.00;;;3.70;;
22150;SDS011;11241;47.078;15.462;2022-08-19T03:48:17;16.50;;;3.92;;
22150;SDS011;11241;47.078;15.462;2022-08-19T03:50:39;12.88;;;4.07;;
22150;SDS011;11241;47.078;15.462;2022-08-19T03:52:57;12.93;;;4.13;;
22150;SDS011;11241;47.078;15.462;2022-08-19T03:55:16;13.50;;;4.97;;
22150;SDS011;11241;47.078;15.462;2022-08-19T03:57:34;15.50;;;5.80;;
22150;SDS011;11241;47.078;15.462;2022-08-19T03:59:52;21.92;;;5.63;;
22150;SDS011;11241;47.078;15.462;2022-08-19T04:02:20;15.25;;;5.60;;
22150;SDS011;11241;47.078;15.462;2022-08-19T04:04:39;13.05;;;5.03;;
22150;SDS011;11241;47.078;15.462;2022-08-19T04:06:58;12.93;;;5.00;;
22150;SDS011;11241;47.078;15.462;2022-08-19T04:09:16;18.80;;;5.22;;
22150;SDS011;11241;47.078;15.462;2022-08-19T04:11:37;22.50;;;6.00;;
22150;SDS011;11241;47.078;15.462;2022-08-19T04:14:01;17.52;;;5.70;;
22150;SDS011;11241;47.078;15.462;2022-08-19T04:16:21;22.60;;;6.28;;
22150;SDS011;11241;47.078;15.462;2022-08-19T04:18:51;22.88;;;5.85;;
22150;SDS011;11241;47.078;15.462;2022-08-19T04:21:14;14.25;;;5.78;;
22150;SDS011;11241;47.078;15.462;2022-08-19T04:23:35;21.65;;;6.22;;
22150;SDS011;11241;47.078;15.462;2022-08-19T04:26:00;16.50;;;6.25;;
22150;SDS011;11241;47.078;15.462;2022-08-19T04:28:20;21.88;;;6.40;;
22150;SDS011;11241;47.078;15.462;2022-08-19T04:30:42;20.00;;;6.38;;
22150;SDS011;11241;47.078;15.462;2022-08-19T04:33:01;16.52;;;6.88;;
22150;SDS011;11241;47.078;15.462;2022-08-19T04:35:19;15.18;;;7.20;;
22150;SDS011;11241;47.078;15.462;2022-08-19T04:37:40;13.23;;;6.03;;
22150;SDS011;11241;47.078;15.462;2022-08-19T04:39:59;12.20;;;6.35;;
22150;SDS011;11241;47.078;15.462;2022-08-19T04:42:36;13.80;;;6.20;;
22150;SDS011;11241;47.078;15.462;2022-08-19T04:44:57;16.02;;;6.15;;
22150;SDS011;11241;47.078;15.462;2022-08-19T04:47:15;17.05;;;5.90;;
22150;SDS011;11241;47.078;15.462;2022-08-19T04:49:54;13.95;;;5.32;;
22150;SDS011;11241;47.078;15.462;2022-08-19T04:52:12;13.05;;;5.32;;
22150;SDS011;11241;47.078;15.462;2022-08-19T04:54:30;12.95;;;5.05;;
22150;SDS011;11241;47.078;15.462;2022-08-19T04:56:54;12.77;;;5.05;;
22150;SDS011;11241;47.078;15.462;2022-08-19T04:59:12;12.52;;;4.30;;
22150;SDS011;11241;47.078;15.462;2022-08-19T05:01:31;11.35;;;4.43;;
22150;SDS011;11241;47.078;15.462;2022-08-19T05:03:50;14.85;;;4.32;;
22150;SDS011;11241;47.078;15.462;2022-08-19T05:06:11;11.00;;;3.95;;
22150;SDS011;11241;47.078;15.462;2022-08-19T05:08:29;15.35;;;4.80;;
22150;SDS011;11241;47.078;15.462;2022-08-19T05:10:48;11.68;;;4.88;;
22150;SDS011;11241;47.078;15.462;2022-08-19T05:13:07;12.18;;;4.55;;
22150;SDS011;11241;47.078;15.462;2022-08-19T05:15:25;14.43;;;4.43;;
22150;SDS011;11241;47.078;15.462;2022-08-19T05:17:44;13.98;;;4.85;;
22150;SDS011;11241;47.078;15.462;2022-08-19T05:20:22;13.52;;;4.40;;
22150;SDS011;11241;47.078;15.462;2022-08-19T05:22:59;10.85;;;4.40;;
22150;SDS011;11241;47.078;15.462;2022-08-19T05:25:29;14.88;;;4.03;;
22150;SDS011;11241;47.078;15.462;2022-08-19T05:27:47;15.73;;;4.75;;
22150;SDS011;11241;47.078;15.462;2022-08-19T05:30:05;13.15;;;4.70;;
22150;SDS011;11241;47.078;15.462;2022-08-19T05:32:23;11.60;;;4.85;;
22150;SDS011;11241;47.078;15.462;2022-08-19T05:34:41;18.35;;;5.07;;
22150;SDS011;11241;47.078;15.462;2022-08-19T05:37:00;16.63;;;5.03;;
22150;SDS011;11241;47.078;15.462;2022-08-19T05:39:19;17.52;;;5.20;;
22150;SDS011;11241;47.078;15.462;2022-08-19T05:41:41;15.18;;;5.28;;
22150;SDS011;11241;47.078;15.462;2022-08-19T05:44:03;13.10;;;5.70;;
22150;SDS011;11241;47.078;15.462;2022-08-19T05:46:26;14.02;;;4.82;;
22150;SDS011;11241;47.078;15.462;2022-08-19T05:48:45;14.27;;;5.30;;
22150;SDS011;11241;47.078;15.462;2022-08-19T05:51:06;21.75;;;5.00;;
22150;SDS011;11241;47.078;15.462;2022-08-19T05:53:25;10.80;;;4.78;;
22150;SDS011;11241;47.078;15.462;2022-08-19T05:55:43;13.27;;;4.90;;
22150;SDS011;11241;47.078;15.462;2022-08-19T05:58:01;14.63;;;5.22;;
22150;SDS011;11241;47.078;15.462;2022-08-19T06:00:19;16.80;;;5.40;;
22150;SDS011;11241;47.078;15.462;2022-08-19T06:02:40;22.33;;;5.82;;
22150;SDS011;11241;47.078;15.462;2022-08-19T06:04:58;15.00;;;6.07;;
22150;SDS011;11241;47.078;15.462;2022-08-19T06:07:16;17.20;;;5.63;;
22150;SDS011;11241;47.078;15.462;2022-08-19T06:09:34;15.35;;;5.13;;
22150;SDS011;11241;47.078;15.462;2022-08-19T06:11:55;19.73;;;5.47;;
22150;SDS011;11241;47.078;15.462;2022-08-19T06:16:35;11.02;;;4.90;;
22150;SDS011;11241;47.078;15.462;2022-08-19T06:18:56;12.75;;;5.43;;
22150;SDS011;11241;47.078;15.462;2022-08-19T06:21:15;12.63;;;5.25;;
22150;SDS011;11241;47.078;15.462;2022-08-19T06:23:33;10.65;;;5.18;;
22150;SDS011;11241;47.078;15.462;2022-08-19T06:25:51;21.77;;;5.78;;
22150;SDS011;11241;47.078;15.462;2022-08-19T06:28:09;15.07;;;5.43;;
22150;SDS011;11241;47.078;15.462;2022-08-19T06:30:31;15.32;;;5.10;;
22150;SDS011;11241;47.078;15.462;2022-08-19T06:32:49;10.70;;;5.65;;
22150;SDS011;11241;47.078;15.462;2022-08-19T06:35:09;15.02;;;5.53;;
22150;SDS011;11241;47.078;15.462;2022-08-19T06:37:28;19.08;;;5.30;;
22150;SDS011;11241;47.078;15.462;2022-08-19T06:39:46;15.45;;;5.18;;
22150;SDS011;11241;47.078;15.462;2022-08-19T06:42:05;13.50;;;5.10;;
22150;SDS011;11241;47.078;15.462;2022-08-19T06:44:29;13.65;;;5.03;;
22150;SDS011;11241;47.078;15.462;2022-08-19T06:46:58;17.00;;;4.78;;
22150;SDS011;11241;47.078;15.462;2022-08-19T06:49:25;14.90;;;4.43;;
22150;SDS011;11241;47.078;15.462;2022-08-19T06:51:48;12.10;;;4.68;;
22150;SDS011;11241;47.078;15.462;2022-08-19T06:54:07;17.85;;;5.28;;
22150;SDS011;11241;47.078;15.462;2022-08-19T06:56:35;21.73;;;5.00;;
22150;SDS011;11241;47.078;15.462;2022-08-19T06:58:54;12.27;;;4.70;;
22150;SDS011;11241;47.078;15.462;2022-08-19T07:01:12;12.23;;;4.55;;
22150;SDS011;11241;47.078;15.462;2022-08-19T07:03:31;9.70;;;4.53;;
22150;SDS011;11241;47.078;15.462;2022-08-19T07:05:53;11.82;;;4.15;;
22150;SDS011;11241;47.078;15.462;2022-08-19T07:08:12;14.38;;;4.20;;
22150;SDS011;11241;47.078;15.462;2022-08-19T07:10:30;8.05;;;4.00;;
22150;SDS011;11241;47.078;15.462;2022-08-19T07:12:50;12.50;;;4.10;;
22150;SDS011;11241;47.078;15.462;2022-08-19T07:15:08;10.80;;;3.88;;
22150;SDS011;11241;47.078;15.462;2022-08-19T07:17:27;11.05;;;4.25;;
22150;SDS011;11241;47.078;15.462;2022-08-19T07:19:46;10.93;;;4.18;;
22150;SDS011;11241;47.078;15.462;2022-08-19T07:22:06;8.27;;;3.85;;
22150;SDS011;11241;47.078;15.462;2022-08-19T07:26:47;10.27;;;4.10;;
22150;SDS011;11241;47.078;15.462;2022-08-19T07:29:07;13.45;;;4.20;;
22150;SDS011;11241;47.078;15.462;2022-08-19T07:31:26;10.30;;;4.25;;
22150;SDS011;11241;47.078;15.462;2022-08-19T07:33:48;14.38;;;4.13;;
22150;SDS011;11241;47.078;15.462;2022-08-19T07:36:11;14.05;;;3.78;;
22150;SDS011;11241;47.078;15.462;2022-08-19T07:38:31;13.23;;;3.95;;
22150;SDS011;11241;47.078;15.462;2022-08-19T07:40:49;7.13;;;3.42;;
22150;SDS011;11241;47.078;15.462;2022-08-19T07:43:08;13.77;;;3.83;;
22150;SDS011;11241;47.078;15.462;2022-08-19T07:45:33;11.50;;;4.07;;
22150;SDS011;11241;47.078;15.462;2022-08-19T07:47:51;11.13;;;3.90;;
22150;SDS011;11241;47.078;15.462;2022-08-19T07:50:10;10.70;;;3.35;;
22150;SDS011;11241;47.078;15.462;2022-08-19T07:52:28;10.23;;;3.78;;
22150;SDS011;11241;47.078;15.462;2022-08-19T07:54:47;11.73;;;3.75;;
22150;SDS011;11241;47.078;15.462;2022-08-19T07:57:07;9.07;;;3.42;;
22150;SDS011;11241;47.078;15.462;2022-08-19T07:59:27;10.30;;;3.83;;
22150;SDS011;11241;47.078;15.462;2022-08-19T08:01:45;12.60;;;4.38;;
22150;SDS011;11241;47.078;15.462;2022-08-19T08:04:04;14.05;;;4.57;;
22150;SDS011;11241;47.078;15.462;2022-08-19T08:06:42;12.88;;;4.25;;
22150;SDS011;11241;47.078;15.462;2022-08-19T08:09:26;15.20;;;4.53;;
22150;SDS011;11241;47.078;15.462;2022-08-19T08:11:46;9.85;;;4.00;;
22150;SDS011;11241;47.078;15.462;2022-08-19T08:14:06;15.65;;;6.38;;
22150;SDS011;11241;47.078;15.462;2022-08-19T08:16:45;15.50;;;4.95;;
22150;SDS011;11241;47.078;15.462;2022-08-19T08:19:06;11.23;;;4.78;;
22150;SDS011;11241;47.078;15.462;2022-08-19T08:21:41;13.55;;;4.63;;
22150;SDS011;11241;47.078;15.462;2022-08-19T08:24:02;8.45;;;4.00;;
22150;SDS011;11241;47.078;15.462;2022-08-19T08:26:21;16.05;;;4.72;;
22150;SDS011;11241;47.078;15.462;2022-08-19T08:28:39;13.98;;;4.47;;
22150;SDS011;11241;47.078;15.462;2022-08-19T08:31:03;14.18;;;3.92;;
22150;SDS011;11241;47.078;15.462;2022-08-19T08:33:27;13.77;;;4.30;;
22150;SDS011;11241;47.078;15.462;2022-08-19T08:35:50;11.95;;;4.50;;
22150;SDS011;11241;47.078;15.462;2022-08-19T08:38:09;15.35;;;4.70;;
22150;SDS011;11241;47.078;15.462;2022-08-19T08:45:19;9.05;;;3.83;;
22150;SDS011;11241;47.078;15.462;2022-08-19T08:47:39;14.88;;;4.60;;
22150;SDS011;11241;47.078;15.462;2022-08-19T08:52:32;12.05;;;4.68;;
22150;SDS011;11241;47.078;15.462;2022-08-19T08:54:53;12.05;;;4.03;;
22150;SDS011;11241;47.078;15.462;2022-08-19T08:57:14;9.98;;;4.22;;
22150;SDS011;11241;47.078;15.462;2022-08-19T08:59:35;14.23;;;4.47;;
22150;SDS011;11241;47.078;15.462;2022-08-19T09:01:54;11.10;;;4.47;;
22150;SDS011;11241;47.078;15.462;2022-08-19T09:04:13;10.65;;;4.20;;
22150;SDS011;11241;47.078;15.462;2022-08-19T09:06:43;10.55;;;4.20;;
22150;SDS011;11241;47.078;15.462;2022-08-19T09:09:25;9.52;;;4.15;;
22150;SDS011;11241;47.078;15.462;2022-08-19T09:17:05;11.77;;;4.40;;
22150;SDS011;11241;47.078;15.462;2022-08-19T09:19:25;10.90;;;3.85;;
22150;SDS011;11241;47.078;15.462;2022-08-19T09:21:45;16.15;;;5.10;;
22150;SDS011;11241;47.078;15.462;2022-08-19T09:24:03;11.57;;;4.93;;
22150;SDS011;11241;47.078;15.462;2022-08-19T09:26:23;13.23;;;4.70;;
22150;SDS011;11241;47.078;15.462;2022-08-19T09:29:01;13.02;;;4.93;;
22150;SDS011;11241;47.078;15.462;2022-08-19T09:31:23;10.30;;;4.78;;
22150;SDS011;11241;47.078;15.462;2022-08-19T09:33:42;13.40;;;4.60;;
22150;SDS011;11241;47.078;15.462;2022-08-19T09:36:07;11.85;;;5.07;;
22150;SDS011;11241;47.078;15.462;2022-08-19T09:40:47;12.27;;;4.43;;
22150;SDS011;11241;47.078;15.462;2022-08-19T09:43:08;11.80;;;4.43;;
22150;SDS011;11241;47.078;15.462;2022-08-19T09:45:29;10.00;;;4.10;;
22150;SDS011;11241;47.078;15.462;2022-08-19T09:47:47;9.30;;;5.13;;
22150;SDS011;11241;47.078;15.462;2022-08-19T09:50:07;13.15;;;4.93;;
22150;SDS011;11241;47.078;15.462;2022-08-19T09:52:32;11.60;;;5.18;;
22150;SDS011;11241;47.078;15.462;2022-08-19T09:54:52;12.57;;;4.97;;
22150;SDS011;11241;47.078;15.462;2022-08-19T09:57:13;13.85;;;5.07;;
22150;SDS011;11241;47.078;15.462;2022-08-19T09:59:38;11.38;;;4.18;;
22150;SDS011;11241;47.078;15.462;2022-08-19T10:01:56;11.95;;;4.18;;
22150;SDS011;11241;47.078;15.462;2022-08-19T10:04:26;13.75;;;4.78;;
22150;SDS011;11241;47.078;15.462;2022-08-19T10:07:08;13.68;;;4.50;;
22150;SDS011;11241;47.078;15.462;2022-08-19T10:09:36;13.15;;;4.88;;
22150;SDS011;11241;47.078;15.462;2022-08-19T10:12:30;10.27;;;4.43;;
22150;SDS011;11241;47.078;15.462;2022-08-19T10:22:03;18.42;;;5.10;;
22150;SDS011;11241;47.078;15.462;2022-08-19T10:24:28;15.60;;;5.57;;
22150;SDS011;11241;47.078;15.462;2022-08-19T10:27:01;11.82;;;4.75;;
22150;SDS011;11241;47.078;15.462;2022-08-19T10:29:36;12.35;;;4.30;;
22150;SDS011;11241;47.078;15.462;2022-08-19T10:32:20;8.38;;;4.53;;
22150;SDS011;11241;47.078;15.462;2022-08-19T10:35:10;12.65;;;4.75;;
22150;SDS011;11241;47.078;15.462;2022-08-19T10:38:13;18.50;;;5.03;;
22150;SDS011;11241;47.078;15.462;2022-08-19T10:44:25;10.73;;;4.90;;
22150;SDS011;11241;47.078;15.462;2022-08-19T10:50:28;14.23;;;4.55;;
22150;SDS011;11241;47.078;15.462;2022-08-19T10:53:06;9.73;;;4.38;;
22150;SDS011;11241;47.078;15.462;2022-08-19T10:55:28;11.32;;;4.43;;
22150;SDS011;11241;47.078;15.462;2022-08-19T10:58:12;15.13;;;4.53;;
22150;SDS011;11241;47.078;15.462;2022-08-19T11:00:30;14.23;;;4.68;;
22150;SDS011;11241;47.078;15.462;2022-08-19T11:02:48;14.07;;;5.05;;
22150;SDS011;11241;47.078;15.462;2022-08-19T11:05:07;10.07;;;4.93;;
22150;SDS011;11241;47.078;15.462;2022-08-19T11:07:29;17.65;;;4.45;;
22150;SDS011;11241;47.078;15.462;2022-08-19T11:09:47;16.83;;;4.45;;
22150;SDS011;11241;47.078;15.462;2022-08-19T11:12:05;12.93;;;4.45;;
22150;SDS011;11241;47.078;15.462;2022-08-19T11:14:24;12.27;;;4.68;;
22150;SDS011;11241;47.078;15.462;2022-08-19T11:16:49;12.60;;;4.30;;
22150;SDS011;11241;47.078;15.462;2022-08-19T11:19:08;12.65;;;3.97;;
22150;SDS011;11241;47.078;15.462;2022-08-19T11:21:27;8.65;;;3.38;;
22150;SDS011;11241;47.078;15.462;2022-08-19T11:23:48;9.13;;;3.30;;
22150;SDS011;11241;47.078;15.462;2022-08-19T11:26:06;16.30;;;5.40;;
22150;SDS011;11241;47.078;15.462;2022-08-19T11:28:24;10.13;;;4.60;;
22150;SDS011;11241;47.078;15.462;2022-08-19T11:30:42;13.63;;;3.28;;
22150;SDS011;11241;47.078;15.462;2022-08-19T11:33:00;10.63;;;2.92;;
22150;SDS011;11241;47.078;15.462;2022-08-19T11:35:19;11.85;;;3.33;;
22150;SDS011;11241;47.078;15.462;2022-08-19T11:37:41;9.82;;;3.28;;
22150;SDS011;11241;47.078;15.462;2022-08-19T11:39:59;7.75;;;2.92;;
22150;SDS011;11241;47.078;15.462;2022-08-19T11:42:21;12.15;;;3.90;;
22150;SDS011;11241;47.078;15.462;2022-08-19T11:44:57;10.07;;;3.00;;
22150;SDS011;11241;47.078;15.462;2022-08-19T11:47:16;9.85;;;2.90;;
22150;SDS011;11241;47.078;15.462;2022-08-19T11:49:34;7.80;;;3.00;;
22150;SDS011;11241;47.078;15.462;2022-08-19T11:51:52;6.90;;;3.13;;
22150;SDS011;11241;47.078;15.462;2022-08-19T11:54:11;11.10;;;3.33;;
22150;SDS011;11241;47.078;15.462;2022-08-19T11:56:36;16.05;;;4.20;;
22150;SDS011;11241;47.078;15.462;2022-08-19T11:58:54;10.32;;;3.75;;
22150;SDS011;11241;47.078;15.462;2022-08-19T12:01:14;11.88;;;3.42;;
22150;SDS011;11241;47.078;15.462;2022-08-19T12:03:33;6.93;;;2.88;;
22150;SDS011;11241;47.078;15.462;2022-08-19T12:05:50;12.57;;;3.25;;
22150;SDS011;11241;47.078;15.462;2022-08-19T12:08:08;13.95;;;2.88;;
22150;SDS011;11241;47.078;15.462;2022-08-19T12:10:28;12.95;;;3.72;;
22150;SDS011;11241;47.078;15.462;2022-08-19T12:12:46;13.52;;;3.65;;
22150;SDS011;11241;47.078;15.462;2022-08-19T12:15:14;9.00;;;3.22;;
22150;SDS011;11241;47.078;15.462;2022-08-19T12:17:32;12.68;;;3.58;;
22150;SDS011;11241;47.078;15.462;2022-08-19T12:19:50;11.23;;;3.15;;
22150;SDS011;11241;47.078;15.462;2022-08-19T12:22:08;11.48;;;3.15;;
22150;SDS011;11241;47.078;15.462;2022-08-19T12:24:26;10.18;;;3.95;;
22150;SDS011;11241;47.078;15.462;2022-08-19T12:26:44;16.33;;;3.50;;
22150;SDS011;11241;47.078;15.462;2022-08-19T12:29:09;12.48;;;3.30;;
22150;SDS011;11241;47.078;15.462;2022-08-19T12:31:27;7.07;;;2.88;;
22150;SDS011;11241;47.078;15.462;2022-08-19T12:33:46;10.43;;;3.00;;
22150;SDS011;11241;47.078;15.462;2022-08-19T12:36:05;10.50;;;2.58;;
22150;SDS011;11241;47.078;15.462;2022-08-19T12:38:23;10.70;;;3.15;;
22150;SDS011;11241;47.078;15.462;2022-08-19T12:40:41;13.75;;;3.65;;
22150;SDS011;11241;47.078;15.462;2022-08-19T12:43:02;9.10;;;2.50;;
22150;SDS011;11241;47.078;15.462;2022-08-19T12:45:23;10.50;;;3.08;;
22150;SDS011;11241;47.078;15.462;2022-08-19T12:47:42;8.35;;;2.72;;
22150;SDS011;11241;47.078;15.462;2022-08-19T12:50:03;10.55;;;2.70;;
22150;SDS011;11241;47.078;15.462;2022-08-19T12:52:23;11.80;;;3.38;;
22150;SDS011;11241;47.078;15.462;2022-08-19T12:54:42;16.63;;;3.47;;
22150;SDS011;11241;47.078;15.462;2022-08-19T12:57:00;10.80;;;3.08;;
22150;SDS011;11241;47.078;15.462;2022-08-19T12:59:18;12.10;;;2.53;;
22150;SDS011;11241;47.078;15.462;2022-08-19T13:01:35;12.00;;;3.05;;
22150;SDS011;11241;47.078;15.462;2022-08-19T13:03:53;16.13;;;3.20;;
22150;SDS011;11241;47.078;15.462;2022-08-19T13:06:11;9.05;;;3.05;;
22150;SDS011;11241;47.078;15.462;2022-08-19T13:08:34;14.55;;;3.15;;
22150;SDS011;11241;47.078;15.462;2022-08-19T13:10:52;16.35;;;2.65;;
22150;SDS011;11241;47.078;15.462;2022-08-19T13:13:10;12.23;;;2.97;;
22150;SDS011;11241;47.078;15.462;2022-08-19T13:15:28;9.68;;;3.17;;
22150;SDS011;11241;47.078;15.462;2022-08-19T13:17:48;9.90;;;3.42;;
22150;SDS011;11241;47.078;15.462;2022-08-19T13:20:09;11.27;;;3.13;;
22150;SDS011;11241;47.078;15.462;2022-08-19T13:22:27;13.65;;;3.25;;
22150;SDS011;11241;47.078;15.462;2022-08-19T13:24:45;10.60;;;3.20;;
22150;SDS011;11241;47.078;15.462;2022-08-19T13:27:03;12.57;;;2.70;;
22150;SDS011;11241;47.078;15.462;2022-08-19T13:29:21;8.88;;;2.95;;
22150;SDS011;11241;47.078;15.462;2022-08-19T13:31:58;11.60;;;3.40;;
22150;SDS011;11241;47.078;15.462;2022-08-19T13:34:35;12.93;;;2.63;;
22150;SDS011;11241;47.078;15.462;2022-08-19T13:36:53;12.90;;;3.00;;
22150;SDS011;11241;47.078;15.462;2022-08-19T13:39:12;9.75;;;3.30;;
22150;SDS011;11241;47.078;15.462;2022-08-19T13:41:30;15.15;;;3.28;;
22150;SDS011;11241;47.078;15.462;2022-08-19T13:43:48;17.85;;;3.15;;
22150;SDS011;11241;47.078;15.462;2022-08-19T13:46:08;13.10;;;3.20;;
22150;SDS011;11241;47.078;15.462;2022-08-19T13:48:27;12.73;;;3.13;;
22150;SDS011;11241;47.078;15.462;2022-08-19T13:50:45;13.10;;;3.15;;
22150;SDS011;11241;47.078;15.462;2022-08-19T13:53:04;13.65;;;2.92;;
22150;SDS011;11241;47.078;15.462;2022-08-19T13:55:23;12.80;;;3.20;;
22150;SDS011;11241;47.078;15.462;2022-08-19T13:57:42;10.40;;;2.92;;
22150;SDS011;11241;47.078;15.462;2022-08-19T14:00:01;20.45;;;3.83;;
22150;SDS011;11241;47.078;15.462;2022-08-19T14:02:20;13.25;;;2.90;;
22150;SDS011;11241;47.078;15.462;2022-08-19T14:04:38;13.07;;;3.10;;
22150;SDS011;11241;47.078;15.462;2022-08-19T14:06:55;10.50;;;3.00;;
22150;SDS011;11241;47.078;15.462;2022-08-19T14:09:13;18.27;;;3.60;;
22150;SDS011;11241;47.078;15.462;2022-08-19T14:11:31;15.63;;;3.15;;
22150;SDS011;11241;47.078;15.462;2022-08-19T14:13:49;12.05;;;3.38;;
22150;SDS011;11241;47.078;15.462;2022-08-19T14:16:08;11.07;;;2.80;;
22150;SDS011;11241;47.078;15.462;2022-08-19T14:18:26;13.52;;;3.20;;
22150;SDS011;11241;47.078;15.462;2022-08-19T14:20:46;12.38;;;3.50;;
22150;SDS011;11241;47.078;15.462;2022-08-19T14:23:04;11.15;;;3.00;;